Time,TemperatureF,DewpointF,PressureIn,WindDirection,WindDirectionDegrees,WindSpeedMPH,WindSpeedGustMPH,Humidity,HourlyPrecipIn,Conditions,Clouds,dailyrainin,SoftwareType,DateUTC
2013-04-18 00:03:00,59.1,59.1,27.99,ESE,103,0.0,2.0,100,0.00,,,0.00,WSDL version 423,2013-04-18 04:03:00,
2013-04-18 00:08:00,59.0,59.0,27.99,East,93,0.0,0.9,100,0.00,,,0.00,WSDL version 423,2013-04-18 04:08:00,
2013-04-18 00:13:00,58.9,58.9,27.99,ESE,110,0.3,1.6,100,0.00,,,0.00,WSDL version 423,2013-04-18 04:13:00,
2013-04-18 00:18:00,58.8,58.8,27.99,SE,135,0.7,2.0,100,0.00,,,0.00,WSDL version 423,2013-04-18 04:18:00,
2013-04-18 00:23:00,58.8,58.8,27.96,SE,133,0.0,2.0,100,0.00,,,0.00,WSDL version 423,2013-04-18 04:23:00,
2013-04-18 00:28:00,58.8,58.8,27.96,ENE,68,1.0,2.2,100,0.00,,,0.00,WSDL version 423,2013-04-18 04:28:00,
2013-04-18 00:33:00,58.8,58.8,27.96,SSE,158,2.1,2.5,100,0.00,,,0.00,WSDL version 423,2013-04-18 04:33:00,
2013-04-18 00:38:00,58.8,58.8,27.96,SSE,158,0.4,2.5,100,0.00,,,0.00,WSDL version 423,2013-04-18 04:38:00,
2013-04-18 00:43:00,58.7,58.7,27.96,NE,35,0.3,2.5,100,0.00,,,0.00,WSDL version 423,2013-04-18 04:43:00,
2013-04-18 00:48:00,58.5,58.5,27.96,ENE,70,0.3,2.2,100,0.00,,,0.00,WSDL version 423,2013-04-18 04:48:00,
2013-04-18 00:53:00,58.4,58.4,27.96,ESE,116,0.3,2.2,100,0.00,,,0.00,WSDL version 423,2013-04-18 04:53:00,
2013-04-18 00:58:00,58.3,58.3,27.96,ESE,110,0.3,2.0,100,0.00,,,0.00,WSDL version 423,2013-04-18 04:58:00,
2013-04-18 01:03:00,58.4,58.4,27.96,ENE,68,0.7,1.6,100,0.00,,,0.00,WSDL version 423,2013-04-18 05:03:00,
2013-04-18 01:08:00,58.5,58.5,27.96,SSE,163,0.1,1.6,100,0.00,,,0.00,WSDL version 423,2013-04-18 05:08:00,
2013-04-18 01:13:00,58.3,58.2,27.96,SSE,158,0.0,1.3,100,0.00,,,0.00,WSDL version 423,2013-04-18 05:13:00,
2013-04-18 01:18:00,58.1,58.1,27.96,ENE,68,0.7,1.1,100,0.00,,,0.00,WSDL version 423,2013-04-18 05:18:00,
2013-04-18 01:23:00,58.1,58.1,27.96,East,98,0.0,1.3,100,0.00,,,0.00,WSDL version 423,2013-04-18 05:23:00,
2013-04-18 01:28:00,57.9,57.9,27.96,ENE,68,1.2,2.0,100,0.00,,,0.00,WSDL version 423,2013-04-18 05:28:00,
2013-04-18 01:33:00,57.9,57.9,27.96,ENE,68,0.0,2.0,100,0.00,,,0.00,WSDL version 423,2013-04-18 05:33:00,
2013-04-18 01:38:00,57.9,57.9,27.96,ENE,68,0.0,1.3,100,0.00,,,0.00,WSDL version 423,2013-04-18 05:38:00,
2013-04-18 01:43:00,57.8,57.8,27.96,ENE,68,0.0,0.0,100,0.00,,,0.00,WSDL version 423,2013-04-18 05:43:00,
2013-04-18 01:48:00,57.6,57.6,27.96,ESE,115,0.0,0.0,100,0.00,,,0.00,WSDL version 423,2013-04-18 05:48:00,
2013-04-18 01:53:00,57.6,57.6,27.96,West,259,1.7,2.7,100,0.00,,,0.00,WSDL version 423,2013-04-18 05:53:00,
2013-04-18 01:58:00,57.8,57.8,27.96,West,281,0.1,2.7,100,0.00,,,0.00,WSDL version 423,2013-04-18 05:58:00,
2013-04-18 02:03:00,57.9,57.9,27.96,SSE,168,0.4,2.0,100,0.00,,,0.00,WSDL version 423,2013-04-18 06:03:00,
2013-04-18 02:08:00,57.8,57.8,27.99,SSE,160,0.0,1.6,100,0.00,,,0.00,WSDL version 423,2013-04-18 06:08:00,
2013-04-18 02:13:00,57.6,57.6,27.99,East,101,0.0,0.0,100,0.00,,,0.00,WSDL version 423,2013-04-18 06:13:00,
2013-04-18 02:18:00,57.5,57.5,27.99,West,270,0.0,1.1,100,0.00,,,0.00,WSDL version 423,2013-04-18 06:18:00,
2013-04-18 02:23:00,57.4,57.3,27.96,East,88,0.7,2.2,100,0.00,,,0.00,WSDL version 423,2013-04-18 06:23:00,
2013-04-18 02:28:00,57.2,57.2,27.96,East,90,0.0,2.2,100,0.00,,,0.00,WSDL version 423,2013-04-18 06:28:00,
2013-04-18 02:33:00,57.2,57.2,27.96,ENE,78,0.0,1.1,100,0.00,,,0.00,WSDL version 423,2013-04-18 06:33:00,
2013-04-18 02:38:00,57.3,57.3,27.96,East,93,0.4,2.0,100,0.00,,,0.00,WSDL version 423,2013-04-18 06:38:00,
2013-04-18 02:43:00,57.5,57.5,27.96,NW,315,0.3,2.0,100,0.00,,,0.00,WSDL version 423,2013-04-18 06:43:00,
2013-04-18 02:48:00,57.6,57.6,27.96,ENE,68,0.0,1.6,100,0.00,,,0.00,WSDL version 423,2013-04-18 06:48:00,
2013-04-18 02:53:00,57.7,57.6,27.96,East,87,0.0,0.0,100,0.00,,,0.00,WSDL version 423,2013-04-18 06:53:00,
2013-04-18 02:58:00,57.8,57.8,27.96,SSE,158,0.0,0.0,100,0.00,,,0.00,WSDL version 423,2013-04-18 06:58:00,
2013-04-18 03:03:00,58.0,58.0,27.96,SW,217,0.0,0.0,100,0.00,,,0.00,WSDL version 423,2013-04-18 07:03:00,
2013-04-18 03:08:00,58.2,58.2,27.96,East,98,0.0,0.0,100,0.00,,,0.00,WSDL version 423,2013-04-18 07:08:00,
2013-04-18 03:13:00,58.4,58.4,27.96,ENE,76,0.0,0.0,100,0.00,,,0.00,WSDL version 423,2013-04-18 07:13:00,
2013-04-18 03:18:00,58.6,58.6,27.96,ENE,78,0.0,0.0,100,0.00,,,0.00,WSDL version 423,2013-04-18 07:18:00,
2013-04-18 03:23:00,58.8,58.8,27.96,SE,129,0.0,1.1,100,0.00,,,0.00,WSDL version 423,2013-04-18 07:23:00,
2013-04-18 03:28:00,59.0,59.0,27.96,SSW,203,0.0,1.1,100,0.00,,,0.00,WSDL version 423,2013-04-18 07:28:00,
2013-04-18 03:33:00,59.1,59.1,27.96,SSE,158,0.8,1.6,100,0.00,,,0.00,WSDL version 423,2013-04-18 07:33:00,
2013-04-18 03:38:00,59.2,59.2,27.99,East,84,1.2,2.2,100,0.00,,,0.00,WSDL version 423,2013-04-18 07:38:00,
2013-04-18 03:43:00,59.2,59.2,27.99,ENE,68,1.0,2.2,100,0.00,,,0.00,WSDL version 423,2013-04-18 07:43:00,
2013-04-18 03:48:00,59.4,59.4,27.99,ESE,104,0.0,1.6,100,0.00,,,0.00,WSDL version 423,2013-04-18 07:48:00,
2013-04-18 03:53:00,59.4,59.4,27.99,NE,50,0.2,2.0,100,0.00,,,0.00,WSDL version 423,2013-04-18 07:53:00,
2013-04-18 03:58:00,59.4,59.4,27.99,ENE,68,0.3,2.0,100,0.00,,,0.00,WSDL version 423,2013-04-18 07:58:00,
2013-04-18 04:03:00,59.5,59.5,27.99,East,84,1.0,2.2,100,0.00,,,0.00,WSDL version 423,2013-04-18 08:03:00,
2013-04-18 04:08:00,59.5,59.5,27.99,SW,225,0.7,2.2,100,0.00,,,0.00,WSDL version 423,2013-04-18 08:08:00,
2013-04-18 04:13:00,59.6,59.6,27.99,East,90,1.7,2.2,100,0.00,,,0.00,WSDL version 423,2013-04-18 08:13:00,
2013-04-18 04:18:00,59.7,59.7,27.99,ENE,76,0.0,2.2,100,0.00,,,0.00,WSDL version 423,2013-04-18 08:18:00,
2013-04-18 04:23:00,59.7,59.7,27.99,SE,135,0.0,2.0,100,0.00,,,0.00,WSDL version 423,2013-04-18 08:23:00,
2013-04-18 04:28:00,59.7,59.7,27.99,ESE,123,0.0,0.0,100,0.00,,,0.00,WSDL version 423,2013-04-18 08:28:00,
2013-04-18 04:33:00,59.8,59.8,27.99,ENE,68,1.2,2.9,100,0.00,,,0.00,WSDL version 423,2013-04-18 08:33:00,
2013-04-18 04:38:00,59.9,59.9,27.99,ENE,59,1.3,2.9,100,0.00,,,0.00,WSDL version 423,2013-04-18 08:38:00,
2013-04-18 04:43:00,59.9,59.9,27.99,ESE,108,0.8,2.7,100,0.00,,,0.00,WSDL version 423,2013-04-18 08:43:00,
2013-04-18 04:48:00,59.9,59.9,27.99,NE,37,0.9,2.5,100,0.00,,,0.00,WSDL version 423,2013-04-18 08:48:00,
2013-04-18 04:53:00,60.1,60.1,27.99,East,83,0.0,2.2,100,0.00,,,0.00,WSDL version 423,2013-04-18 08:53:00,
2013-04-18 04:58:00,60.1,60.1,27.99,WSW,248,0.0,0.0,100,0.00,,,0.00,WSDL version 423,2013-04-18 08:58:00,
2013-04-18 05:03:00,60.1,60.1,27.99,South,183,0.0,0.0,100,0.00,,,0.00,WSDL version 423,2013-04-18 09:03:00,
2013-04-18 05:08:00,60.1,60.1,27.99,East,88,0.0,0.0,100,0.00,,,0.00,WSDL version 423,2013-04-18 09:08:00,
2013-04-18 05:13:00,60.1,60.1,27.99,ESE,104,0.7,1.3,100,0.00,,,0.00,WSDL version 423,2013-04-18 09:13:00,
2013-04-18 05:18:00,60.1,60.1,27.99,WSW,238,0.3,2.9,100,0.00,,,0.00,WSDL version 423,2013-04-18 09:18:00,
2013-04-18 05:23:00,60.2,60.2,27.99,East,98,0.8,2.9,100,0.00,,,0.00,WSDL version 423,2013-04-18 09:23:00,
2013-04-18 05:28:00,60.3,60.3,27.99,SW,220,0.0,2.7,100,0.00,,,0.00,WSDL version 423,2013-04-18 09:28:00,
2013-04-18 05:33:00,60.3,60.3,27.99,South,174,0.0,0.0,100,0.00,,,0.00,WSDL version 423,2013-04-18 09:33:00,
2013-04-18 05:38:00,60.3,60.3,27.99,ENE,68,0.0,0.0,100,0.00,,,0.00,WSDL version 423,2013-04-18 09:38:00,
2013-04-18 05:43:00,60.3,60.3,27.99,ESE,120,0.0,0.0,100,0.00,,,0.00,WSDL version 423,2013-04-18 09:43:00,
2013-04-18 05:48:00,60.3,60.3,27.99,ESE,121,0.0,0.0,100,0.00,,,0.00,WSDL version 423,2013-04-18 09:48:00,
2013-04-18 05:53:00,60.3,60.3,27.99,East,84,0.0,0.0,100,0.00,,,0.00,WSDL version 423,2013-04-18 09:53:00,
2013-04-18 06:03:00,60.3,60.3,27.99,ENE,68,0.0,2.2,100,0.00,,,0.00,WSDL version 423,2013-04-18 10:03:00,
2013-04-18 06:08:00,60.3,60.3,27.99,East,84,0.7,1.6,100,0.00,,,0.00,WSDL version 423,2013-04-18 10:08:00,
2013-04-18 06:13:00,60.3,60.3,27.99,ENE,68,0.0,2.0,100,0.00,,,0.00,WSDL version 423,2013-04-18 10:13:00,
2013-04-18 06:18:00,60.1,60.1,27.99,East,90,0.0,2.0,100,0.00,,,0.00,WSDL version 423,2013-04-18 10:18:00,
2013-04-18 06:23:00,60.1,60.1,27.99,East,84,0.1,1.6,100,0.00,,,0.00,WSDL version 423,2013-04-18 10:23:00,
2013-04-18 06:28:00,60.1,60.1,27.99,ENE,68,0.0,1.6,100,0.00,,,0.00,WSDL version 423,2013-04-18 10:28:00,
2013-04-18 06:33:00,60.1,60.1,27.99,East,96,0.0,1.3,100,0.00,,,0.00,WSDL version 423,2013-04-18 10:33:00,
2013-04-18 06:38:00,60.1,60.1,27.99,ESE,123,0.0,0.0,100,0.00,,,0.00,WSDL version 423,2013-04-18 10:38:00,
2013-04-18 06:43:00,60.1,60.1,27.99,East,80,0.0,0.0,100,0.00,,,0.00,WSDL version 423,2013-04-18 10:43:00,
2013-04-18 06:48:00,60.1,60.1,27.99,ENE,70,0.0,0.0,100,0.00,,,0.00,WSDL version 423,2013-04-18 10:48:00,
2013-04-18 06:53:00,60.1,60.0,27.99,ENE,68,0.0,0.0,100,0.00,,,0.00,WSDL version 423,2013-04-18 10:53:00,
2013-04-18 06:58:00,59.9,59.9,27.99,ENE,76,0.0,0.0,100,0.00,,,0.00,WSDL version 423,2013-04-18 10:58:00,
2013-04-18 07:03:00,59.9,59.9,27.99,East,90,0.0,0.0,100,0.00,,,0.00,WSDL version 423,2013-04-18 11:03:00,
2013-04-18 07:08:00,59.9,59.9,27.99,ESE,118,0.0,0.0,100,0.00,,,0.00,WSDL version 423,2013-04-18 11:08:00,
2013-04-18 07:13:00,59.9,59.9,27.99,SE,128,0.0,0.0,100,0.00,,,0.00,WSDL version 423,2013-04-18 11:13:00,
2013-04-18 07:18:00,59.9,59.9,27.99,SE,143,0.0,0.0,100,0.00,,,0.00,WSDL version 423,2013-04-18 11:18:00,
2013-04-18 07:23:00,59.9,59.9,27.99,ENE,75,0.0,0.0,100,0.00,,,0.00,WSDL version 423,2013-04-18 11:23:00,
2013-04-18 07:28:00,60.0,60.0,27.99,SE,138,0.0,0.0,100,0.00,,,0.00,WSDL version 423,2013-04-18 11:28:00,
2013-04-18 07:33:00,60.1,60.1,27.99,ENE,68,0.0,0.0,100,0.00,,,0.00,WSDL version 423,2013-04-18 11:33:00,
2013-04-18 07:38:00,60.1,60.0,27.99,North,11,0.0,0.0,100,0.00,,,0.00,WSDL version 423,2013-04-18 11:38:00,
2013-04-18 07:43:00,60.1,60.1,27.99,NW,326,0.4,3.8,100,0.00,,,0.00,WSDL version 423,2013-04-18 11:43:00,
2013-04-18 07:48:00,60.1,60.1,27.99,SE,130,0.0,3.8,100,0.00,,,0.00,WSDL version 423,2013-04-18 11:48:00,
2013-04-18 07:53:00,60.1,60.1,27.99,ENE,75,0.0,3.4,100,0.00,,,0.00,WSDL version 423,2013-04-18 11:53:00,
2013-04-18 07:58:00,60.3,60.3,27.99,East,93,0.6,1.6,100,0.00,,,0.00,WSDL version 423,2013-04-18 11:58:00,
2013-04-18 08:03:00,60.3,60.3,27.99,ENE,65,0.3,1.6,100,0.00,,,0.00,WSDL version 423,2013-04-18 12:03:00,
2013-04-18 08:08:00,60.4,60.4,27.99,ENE,68,0.0,1.6,100,0.00,,,0.00,WSDL version 423,2013-04-18 12:08:00,
2013-04-18 08:13:00,60.5,60.5,27.99,ENE,65,0.0,1.1,100,0.00,,,0.00,WSDL version 423,2013-04-18 12:13:00,
2013-04-18 08:18:00,60.6,60.6,27.99,SW,225,0.0,0.0,100,0.00,,,0.00,WSDL version 423,2013-04-18 12:18:00,
2013-04-18 08:23:00,60.7,60.6,27.99,ENE,73,0.4,1.6,100,0.00,,,0.00,WSDL version 423,2013-04-18 12:23:00,
2013-04-18 08:28:00,60.8,60.8,27.99,ENE,68,0.0,1.6,100,0.00,,,0.00,WSDL version 423,2013-04-18 12:28:00,
2013-04-18 08:33:00,61.0,61.0,27.99,NE,50,0.0,0.0,100,0.00,,,0.00,WSDL version 423,2013-04-18 12:33:00,
2013-04-18 08:38:00,61.1,61.1,27.99,ENE,75,1.5,2.9,100,0.00,,,0.00,WSDL version 423,2013-04-18 12:38:00,
2013-04-18 08:43:00,61.3,61.3,27.99,NE,34,0.2,2.9,100,0.00,,,0.00,WSDL version 423,2013-04-18 12:43:00,
2013-04-18 08:48:00,61.5,61.5,27.99,NE,53,0.9,2.5,100,0.00,,,0.00,WSDL version 423,2013-04-18 12:48:00,
2013-04-18 08:53:00,61.6,61.6,27.99,SW,222,0.3,2.7,100,0.00,,,0.00,WSDL version 423,2013-04-18 12:53:00,
2013-04-18 08:58:00,61.6,61.6,27.99,SW,220,1.7,3.4,100,0.00,,,0.00,WSDL version 423,2013-04-18 12:58:00,
2013-04-18 09:03:00,61.8,61.8,27.99,WSW,258,0.8,3.4,100,0.00,,,0.00,WSDL version 423,2013-04-18 13:03:00,
2013-04-18 09:08:00,61.9,61.9,27.99,NW,312,1.2,2.9,100,0.00,,,0.00,WSDL version 423,2013-04-18 13:08:00,
2013-04-18 09:13:00,61.9,61.9,27.99,WNW,286,0.8,2.7,100,0.00,,,0.00,WSDL version 423,2013-04-18 13:13:00,
2013-04-18 09:18:00,61.9,61.9,27.99,SE,130,1.4,2.7,100,0.00,,,0.00,WSDL version 423,2013-04-18 13:18:00,
2013-04-18 09:23:00,61.8,61.8,27.99,NW,315,0.7,3.4,100,0.00,,,0.00,WSDL version 423,2013-04-18 13:23:00,
2013-04-18 09:28:00,62.0,62.0,27.99,WNW,293,0.3,3.4,100,0.00,,,0.00,WSDL version 423,2013-04-18 13:28:00,
2013-04-18 09:33:00,62.2,62.2,27.99,South,178,0.2,3.1,100,0.00,,,0.00,WSDL version 423,2013-04-18 13:33:00,
2013-04-18 09:38:00,62.3,62.0,27.99,SW,230,0.7,2.9,98,0.00,,,0.00,WSDL version 423,2013-04-18 13:38:00,
2013-04-18 09:43:00,62.4,61.0,27.99,SSW,203,0.7,3.4,94,0.00,,,0.00,WSDL version 423,2013-04-18 13:43:00,
2013-04-18 09:48:00,62.8,61.3,27.99,WNW,290,1.0,3.4,94,0.00,,,0.00,WSDL version 423,2013-04-18 13:48:00,
2013-04-18 09:53:00,63.0,61.3,27.99,WNW,283,1.2,3.1,94,0.00,,,0.00,WSDL version 423,2013-04-18 13:53:00,
2013-04-18 09:58:00,62.9,61.0,27.99,North,360,1.1,2.7,93,0.00,,,0.00,WSDL version 423,2013-04-18 13:58:00,
2013-04-18 10:03:00,63.1,61.1,27.99,West,260,1.4,2.9,93,0.00,,,0.00,WSDL version 423,2013-04-18 14:03:00,
2013-04-18 10:08:00,63.4,60.7,27.99,WNW,295,1.7,3.8,90,0.00,,,0.00,WSDL version 423,2013-04-18 14:08:00,
2013-04-18 10:13:00,63.8,60.9,27.99,WSW,240,1.0,3.8,89,0.00,,,0.00,WSDL version 423,2013-04-18 14:13:00,
2013-04-18 10:18:00,64.0,59.6,27.99,NNE,17,2.3,4.0,80,0.00,,,0.00,WSDL version 423,2013-04-18 14:18:00,
2013-04-18 10:23:00,64.3,58.6,27.99,SW,221,1.4,4.0,83,0.00,,,0.00,WSDL version 423,2013-04-18 14:23:00,
2013-04-18 10:28:00,64.5,57.5,27.99,WNW,288,2.1,5.4,80,0.00,,,0.00,WSDL version 423,2013-04-18 14:28:00,
2013-04-18 10:33:00,64.8,58.1,27.99,NW,312,1.7,5.4,78,0.00,,,0.00,WSDL version 423,2013-04-18 14:33:00,
2013-04-18 10:38:00,65.1,58.2,27.99,SSE,165,2.4,4.3,76,0.00,,,0.00,WSDL version 423,2013-04-18 14:38:00,
2013-04-18 10:43:00,65.4,57.6,27.99,NNW,343,2.0,4.3,76,0.00,,,0.00,WSDL version 423,2013-04-18 14:43:00,
2013-04-18 10:48:00,65.7,57.9,27.99,NNE,15,1.5,2.9,79,0.00,,,0.00,WSDL version 423,2013-04-18 14:48:00,
2013-04-18 10:53:00,66.0,57.6,27.99,West,264,2.8,3.8,73,0.00,,,0.00,WSDL version 423,2013-04-18 14:53:00,
2013-04-18 10:58:00,66.2,56.2,27.99,WSW,255,2.4,4.0,68,0.00,,,0.00,WSDL version 423,2013-04-18 14:58:00,
2013-04-18 11:03:00,66.6,56.6,27.99,WNW,288,1.5,5.6,71,0.00,,,0.00,WSDL version 423,2013-04-18 15:03:00,
2013-04-18 11:08:00,67.0,55.3,27.99,NNW,335,2.6,5.8,65,0.00,,,0.00,WSDL version 423,2013-04-18 15:08:00,
2013-04-18 11:13:00,67.3,54.7,27.99,NW,323,1.9,5.8,62,0.00,,,0.00,WSDL version 423,2013-04-18 15:13:00,
2013-04-18 11:18:00,67.3,54.7,27.99,WNW,303,1.9,5.4,64,0.00,,,0.00,WSDL version 423,2013-04-18 15:18:00,
2013-04-18 11:23:00,67.1,53.8,27.99,WNW,283,2.1,4.3,64,0.00,,,0.00,WSDL version 423,2013-04-18 15:23:00,
2013-04-18 11:28:00,67.3,54.2,27.99,West,259,2.3,4.3,63,0.00,,,0.00,WSDL version 423,2013-04-18 15:28:00,
2013-04-18 11:33:00,67.8,53.2,27.99,NW,320,1.6,4.0,60,0.00,,,0.00,WSDL version 423,2013-04-18 15:33:00,
2013-04-18 11:38:00,69.2,54.2,27.99,NW,304,2.8,5.4,58,0.00,,,0.00,WSDL version 423,2013-04-18 15:38:00,
2013-04-18 11:43:00,70.3,54.4,27.99,WNW,290,2.3,5.4,54,0.00,,,0.00,WSDL version 423,2013-04-18 15:43:00,
2013-04-18 11:48:00,71.2,53.3,27.99,WNW,295,3.0,4.7,52,0.00,,,0.00,WSDL version 423,2013-04-18 15:48:00,
2013-04-18 11:53:00,72.2,53.4,27.99,WNW,293,2.1,4.3,48,0.00,,,0.00,WSDL version 423,2013-04-18 15:53:00,
2013-04-18 11:58:00,73.0,51.8,27.99,NW,325,2.2,6.5,46,0.00,,,0.00,WSDL version 423,2013-04-18 15:58:00,
2013-04-18 12:03:00,73.2,50.6,27.99,NW,305,2.5,6.5,44,0.00,,,0.00,WSDL version 423,2013-04-18 16:03:00,
2013-04-18 12:08:00,73.4,50.9,27.99,WNW,295,2.0,4.0,44,0.00,,,0.00,WSDL version 423,2013-04-18 16:08:00,
2013-04-18 12:13:00,73.5,50.0,27.99,North,355,2.9,5.6,43,0.00,,,0.00,WSDL version 423,2013-04-18 16:13:00,
2013-04-18 12:18:00,73.3,50.1,27.99,NNE,33,1.8,5.6,44,0.00,,,0.00,WSDL version 423,2013-04-18 16:18:00,
2013-04-18 12:23:00,73.7,49.9,27.99,NW,310,2.6,5.4,43,0.00,,,0.00,WSDL version 423,2013-04-18 16:23:00,
2013-04-18 12:28:00,73.8,49.6,27.99,NE,56,3.3,5.8,42,0.00,,,0.00,WSDL version 423,2013-04-18 16:28:00,
2013-04-18 12:33:00,73.9,49.5,27.99,WNW,300,2.2,5.8,42,0.00,,,0.00,WSDL version 423,2013-04-18 16:33:00,
2013-04-18 12:38:00,73.8,49.4,27.96,WNW,290,2.6,6.3,42,0.00,,,0.00,WSDL version 423,2013-04-18 16:38:00,
2013-04-18 12:43:00,74.1,49.7,27.96,NW,313,3.1,6.3,41,0.00,,,0.00,WSDL version 423,2013-04-18 16:43:00,
2013-04-18 12:48:00,73.6,49.2,27.96,ENE,78,1.4,4.0,42,0.00,,,0.00,WSDL version 423,2013-04-18 16:48:00,
2013-04-18 12:53:00,74.0,49.7,27.96,NW,321,3.1,6.3,41,0.00,,,0.00,WSDL version 423,2013-04-18 16:53:00,
2013-04-18 12:58:00,73.7,48.9,27.96,NNW,328,2.8,6.3,41,0.00,,,0.00,WSDL version 423,2013-04-18 16:58:00,
2013-04-18 13:03:00,73.7,48.6,27.96,NW,326,2.9,6.0,40,0.00,,,0.00,WSDL version 423,2013-04-18 17:03:00,
2013-04-18 13:08:00,73.1,48.3,27.96,NNW,345,2.5,6.0,42,0.00,,,0.00,WSDL version 423,2013-04-18 17:08:00,
2013-04-18 13:13:00,73.0,48.7,27.96,NNW,329,2.0,3.8,42,0.00,,,0.00,WSDL version 423,2013-04-18 17:13:00,
2013-04-18 13:18:00,73.4,48.4,27.96,NW,313,2.8,4.0,41,0.00,,,0.00,WSDL version 423,2013-04-18 17:18:00,
2013-04-18 13:23:00,73.5,48.5,27.96,NE,35,2.4,6.0,41,0.00,,,0.00,WSDL version 423,2013-04-18 17:23:00,
2013-04-18 13:28:00,73.3,48.7,27.96,NNW,340,2.9,6.0,42,0.00,,,0.00,WSDL version 423,2013-04-18 17:28:00,
2013-04-18 13:33:00,73.5,48.7,27.96,West,273,2.5,4.9,42,0.00,,,0.00,WSDL version 423,2013-04-18 17:33:00,
2013-04-18 13:38:00,73.0,48.6,27.96,West,264,1.9,4.9,42,0.00,,,0.00,WSDL version 423,2013-04-18 17:38:00,
2013-04-18 13:43:00,73.4,48.5,27.96,WNW,293,2.4,8.5,42,0.00,,,0.00,WSDL version 423,2013-04-18 17:43:00,
2013-04-18 13:48:00,73.7,49.0,27.96,NW,307,2.5,8.5,41,0.00,,,0.00,WSDL version 423,2013-04-18 17:48:00,
2013-04-18 13:53:00,73.4,48.4,27.96,WNW,298,2.6,4.7,41,0.00,,,0.00,WSDL version 423,2013-04-18 17:53:00,
2013-04-18 13:58:00,73.1,48.5,27.96,NNW,330,2.6,6.0,41,0.00,,,0.00,WSDL version 423,2013-04-18 17:58:00,
2013-04-18 14:03:00,73.0,48.2,27.96,NNW,340,2.5,6.0,42,0.00,,,0.00,WSDL version 423,2013-04-18 18:03:00,
2013-04-18 14:08:00,73.6,48.7,27.96,West,278,2.5,5.8,41,0.00,,,0.00,WSDL version 423,2013-04-18 18:08:00,
2013-04-18 14:13:00,74.0,48.4,27.96,WNW,298,4.0,8.7,39,0.00,,,0.00,WSDL version 423,2013-04-18 18:13:00,
2013-04-18 14:18:00,73.7,48.3,27.96,WNW,293,2.2,8.7,40,0.00,,,0.00,WSDL version 423,2013-04-18 18:18:00,
2013-04-18 14:23:00,74.3,48.7,27.94,NW,321,2.6,6.0,39,0.00,,,0.00,WSDL version 423,2013-04-18 18:23:00,
2013-04-18 14:28:00,74.4,48.5,27.94,NNW,335,2.6,6.0,40,0.00,,,0.00,WSDL version 423,2013-04-18 18:28:00,
2013-04-18 14:33:00,73.6,47.8,27.94,WNW,298,1.9,4.9,41,0.00,,,0.00,WSDL version 423,2013-04-18 18:33:00,
2013-04-18 14:38:00,73.3,48.2,27.94,NNE,31,2.1,3.8,41,0.00,,,0.00,WSDL version 423,2013-04-18 18:38:00,
2013-04-18 14:43:00,73.3,48.5,27.94,NW,318,3.0,4.0,41,0.00,,,0.00,WSDL version 423,2013-04-18 18:43:00,
2013-04-18 14:48:00,74.2,49.5,27.94,WNW,284,2.7,4.0,42,0.00,,,0.00,WSDL version 423,2013-04-18 18:48:00,
2013-04-18 14:53:00,74.8,49.0,27.94,NW,318,2.7,4.9,41,0.00,,,0.00,WSDL version 423,2013-04-18 18:53:00,
2013-04-18 14:58:00,74.7,49.3,27.94,NNW,343,3.0,9.6,40,0.00,,,0.00,WSDL version 423,2013-04-18 18:58:00,
2013-04-18 15:03:00,74.4,48.4,27.94,NNE,33,2.8,9.6,39,0.00,,,0.00,WSDL version 423,2013-04-18 19:03:00,
2013-04-18 15:08:00,74.5,48.6,27.94,North,349,2.5,4.3,40,0.00,,,0.00,WSDL version 423,2013-04-18 19:08:00,
2013-04-18 15:13:00,75.1,48.6,27.94,WSW,239,3.9,7.4,40,0.00,,,0.00,WSDL version 423,2013-04-18 19:13:00,
2013-04-18 15:18:00,75.4,48.5,27.94,ESE,108,2.8,7.4,39,0.00,,,0.00,WSDL version 423,2013-04-18 19:18:00,
2013-04-18 15:23:00,75.3,48.4,27.91,WNW,298,2.5,6.9,39,0.00,,,0.00,WSDL version 423,2013-04-18 19:23:00,
2013-04-18 15:28:00,74.7,48.4,27.91,NNW,343,3.2,5.6,39,0.00,,,0.00,WSDL version 423,2013-04-18 19:28:00,
2013-04-18 15:33:00,74.9,48.9,27.91,NW,310,2.8,5.6,41,0.00,,,0.00,WSDL version 423,2013-04-18 19:33:00,
2013-04-18 15:38:00,75.7,49.1,27.91,NW,308,3.8,5.8,38,0.00,,,0.00,WSDL version 423,2013-04-18 19:38:00,
2013-04-18 15:43:00,75.1,48.2,27.91,NNW,333,3.3,8.5,39,0.00,,,0.00,WSDL version 423,2013-04-18 19:43:00,
2013-04-18 15:48:00,74.3,48.2,27.91,NW,309,2.5,8.5,40,0.00,,,0.00,WSDL version 423,2013-04-18 19:48:00,
2013-04-18 15:53:00,74.5,48.7,27.91,NNE,25,2.6,4.3,40,0.00,,,0.00,WSDL version 423,2013-04-18 19:53:00,
2013-04-18 15:58:00,74.5,49.3,27.91,WNW,283,1.9,4.0,41,0.00,,,0.00,WSDL version 423,2013-04-18 19:58:00,
2013-04-18 16:03:00,75.1,49.6,27.91,WNW,287,2.9,4.3,40,0.00,,,0.00,WSDL version 423,2013-04-18 20:03:00,
2013-04-18 16:08:00,75.2,49.2,27.88,SSW,205,2.9,5.6,39,0.00,,,0.00,WSDL version 423,2013-04-18 20:08:00,
2013-04-18 16:13:00,75.1,49.5,27.88,WNW,295,2.4,6.0,40,0.00,,,0.00,WSDL version 423,2013-04-18 20:13:00,
2013-04-18 16:18:00,75.1,49.8,27.88,NW,315,2.9,7.2,41,0.00,,,0.00,WSDL version 423,2013-04-18 20:18:00,
2013-04-18 16:23:00,75.4,49.6,27.88,West,259,3.3,7.6,40,0.00,,,0.00,WSDL version 423,2013-04-18 20:23:00,
2013-04-18 16:28:00,75.8,49.9,27.88,WNW,290,2.3,7.6,40,0.00,,,0.00,WSDL version 423,2013-04-18 20:28:00,
2013-04-18 16:38:00,76.2,49.9,27.88,WNW,293,2.9,6.3,40,0.00,,,0.00,WSDL version 423,2013-04-18 20:38:00,
2013-04-18 16:43:00,76.3,50.0,27.88,NW,309,3.7,6.3,39,0.00,,,0.00,WSDL version 423,2013-04-18 20:43:00,
2013-04-18 16:48:00,76.1,49.1,27.88,WNW,293,4.4,8.7,39,0.00,,,0.00,WSDL version 423,2013-04-18 20:48:00,
2013-04-18 16:53:00,75.7,48.0,27.88,West,263,3.9,8.7,37,0.00,,,0.00,WSDL version 423,2013-04-18 20:53:00,
2013-04-18 16:58:00,75.2,47.8,27.88,WNW,303,2.6,7.8,39,0.00,,,0.00,WSDL version 423,2013-04-18 20:58:00,
2013-04-18 17:03:00,75.0,49.1,27.88,WNW,298,2.3,5.6,40,0.00,,,0.00,WSDL version 423,2013-04-18 21:03:00,
2013-04-18 17:08:00,74.6,48.7,27.88,WNW,287,2.2,5.6,41,0.00,,,0.00,WSDL version 423,2013-04-18 21:08:00,
2013-04-18 17:13:00,74.1,49.1,27.88,WNW,295,3.0,5.6,41,0.00,,,0.00,WSDL version 423,2013-04-18 21:13:00,
2013-04-18 17:18:00,74.0,48.6,27.88,West,276,2.5,5.6,41,0.00,,,0.00,WSDL version 423,2013-04-18 21:18:00,
2013-04-18 17:23:00,73.8,48.3,27.88,WNW,303,1.9,5.4,41,0.00,,,0.00,WSDL version 423,2013-04-18 21:23:00,
2013-04-18 17:28:00,73.9,49.3,27.88,WNW,285,2.8,5.4,41,0.00,,,0.00,WSDL version 423,2013-04-18 21:28:00,
2013-04-18 17:33:00,73.8,49.2,27.88,West,270,2.1,4.3,42,0.00,,,0.00,WSDL version 423,2013-04-18 21:33:00,
2013-04-18 17:40:00,73.6,48.7,27.88,NE,38,2.1,3.6,42,0.00,,,0.00,WSDL version 423,2013-04-18 21:40:00,
2013-04-18 17:45:00,73.6,48.9,27.88,NNW,335,2.3,5.6,43,0.00,,,0.00,WSDL version 423,2013-04-18 21:45:00,
2013-04-18 17:50:00,73.9,49.8,27.85,NW,310,1.8,5.6,43,0.00,,,0.00,WSDL version 423,2013-04-18 21:50:00,
2013-04-18 17:55:00,74.2,49.7,27.85,WNW,290,1.7,7.6,42,0.00,,,0.00,WSDL version 423,2013-04-18 21:55:00,
2013-04-18 18:00:00,73.7,48.9,27.85,NNW,332,3.0,7.6,41,0.00,,,0.00,WSDL version 423,2013-04-18 22:00:00,
2013-04-18 18:05:00,73.5,48.9,27.85,WNW,295,1.9,4.3,42,0.00,,,0.00,WSDL version 423,2013-04-18 22:05:00,
2013-04-18 18:10:00,73.6,49.7,27.85,NE,39,2.6,3.8,43,0.00,,,0.00,WSDL version 423,2013-04-18 22:10:00,
2013-04-18 18:15:00,73.2,49.4,27.85,NNW,330,1.7,3.8,44,0.00,,,0.00,WSDL version 423,2013-04-18 22:15:00,
2013-04-18 18:20:00,72.9,49.7,27.85,NW,312,1.5,3.1,44,0.00,,,0.00,WSDL version 423,2013-04-18 22:20:00,
2013-04-18 18:25:00,73.0,49.7,27.85,NNE,30,1.9,3.4,45,0.00,,,0.00,WSDL version 423,2013-04-18 22:25:00,
2013-04-18 18:30:00,73.0,50.4,27.85,West,263,1.6,3.4,45,0.00,,,0.00,WSDL version 423,2013-04-18 22:30:00,
2013-04-18 18:35:00,73.1,50.0,27.85,NNW,335,1.5,4.3,44,0.00,,,0.00,WSDL version 423,2013-04-18 22:35:00,
2013-04-18 18:40:00,73.0,49.6,27.85,WNW,288,2.5,4.3,44,0.00,,,0.00,WSDL version 423,2013-04-18 22:40:00,
2013-04-18 18:45:00,72.7,49.5,27.85,NE,42,0.2,4.0,44,0.00,,,0.00,WSDL version 423,2013-04-18 22:45:00,
2013-04-18 18:50:00,72.3,49.2,27.85,NNE,28,1.6,3.1,44,0.00,,,0.00,WSDL version 423,2013-04-18 22:50:00,
2013-04-18 18:55:00,71.9,49.6,27.85,NNW,329,0.6,3.6,46,0.00,,,0.00,WSDL version 423,2013-04-18 22:55:00,
2013-04-18 19:00:00,71.4,50.0,27.85,WNW,283,1.7,4.3,47,0.00,,,0.00,WSDL version 423,2013-04-18 23:00:00,
2013-04-18 19:05:00,71.1,51.1,27.85,ESE,118,2.5,4.3,50,0.00,,,0.00,WSDL version 423,2013-04-18 23:05:00,
2013-04-18 19:10:00,70.7,50.7,27.85,WNW,287,2.8,5.8,48,0.00,,,0.00,WSDL version 423,2013-04-18 23:10:00,
2013-04-18 19:15:00,70.7,50.4,27.85,NNE,30,1.1,5.8,49,0.00,,,0.00,WSDL version 423,2013-04-18 23:15:00,
2013-04-18 19:20:00,70.4,50.6,27.85,NNE,17,2.0,2.9,50,0.00,,,0.00,WSDL version 423,2013-04-18 23:20:00,
2013-04-18 19:25:00,70.2,50.9,27.85,SSE,160,1.7,2.9,50,0.00,,,0.00,WSDL version 423,2013-04-18 23:25:00,
2013-04-18 19:30:00,69.9,50.8,27.85,East,93,1.1,2.9,52,0.00,,,0.00,WSDL version 423,2013-04-18 23:30:00,
2013-04-18 19:35:00,69.5,51.0,27.85,East,88,0.9,2.5,52,0.00,,,0.00,WSDL version 423,2013-04-18 23:35:00,
2013-04-18 19:40:00,69.1,50.8,27.85,ESE,105,1.4,2.2,52,0.00,,,0.00,WSDL version 423,2013-04-18 23:40:00,
2013-04-18 19:45:00,68.8,50.5,27.85,East,79,1.6,2.5,52,0.00,,,0.00,WSDL version 423,2013-04-18 23:45:00,
2013-04-18 19:50:00,68.5,50.7,27.85,East,95,1.2,2.5,53,0.00,,,0.00,WSDL version 423,2013-04-18 23:50:00,
2013-04-18 19:55:00,68.2,50.6,27.85,East,90,1.1,2.7,54,0.00,,,0.00,WSDL version 423,2013-04-18 23:55:00,
2013-04-18 20:00:00,67.9,50.7,27.85,ESE,118,1.7,3.1,54,0.00,,,0.00,WSDL version 423,2013-04-19 00:00:00,
2013-04-18 20:05:00,67.7,51.0,27.85,ESE,107,0.8,3.4,55,0.00,,,0.00,WSDL version 423,2013-04-19 00:05:00,
2013-04-18 20:10:00,67.5,51.2,27.85,East,83,1.8,3.4,57,0.00,,,0.00,WSDL version 423,2013-04-19 00:10:00,
2013-04-18 20:15:00,67.3,51.3,27.85,East,80,1.7,2.9,57,0.00,,,0.00,WSDL version 423,2013-04-19 00:15:00,
2013-04-18 20:20:00,67.0,51.3,27.85,ENE,76,1.7,2.7,57,0.00,,,0.00,WSDL version 423,2013-04-19 00:20:00,
2013-04-18 20:25:00,66.9,51.6,27.85,NNW,330,1.0,2.5,58,0.00,,,0.00,WSDL version 423,2013-04-19 00:25:00,
2013-04-18 20:35:00,66.6,52.1,27.85,NNE,30,1.5,2.5,60,0.00,,,0.00,WSDL version 423,2013-04-19 00:35:00,
2013-04-18 20:40:00,66.4,51.9,27.85,NNE,32,0.8,2.5,60,0.00,,,0.00,WSDL version 423,2013-04-19 00:40:00,
2013-04-18 20:45:00,66.4,51.8,27.85,NE,40,0.4,2.9,60,0.00,,,0.00,WSDL version 423,2013-04-19 00:45:00,
2013-04-18 20:50:00,66.2,52.2,27.85,ESE,108,2.0,3.4,61,0.00,,,0.00,WSDL version 423,2013-04-19 00:50:00,
2013-04-18 20:55:00,66.1,52.3,27.85,SW,219,0.4,3.4,61,0.00,,,0.00,WSDL version 423,2013-04-19 00:55:00,
2013-04-18 21:00:00,65.9,52.4,27.85,East,80,1.7,2.7,62,0.00,,,0.00,WSDL version 423,2013-04-19 01:00:00,
2013-04-18 21:05:00,65.8,52.4,27.85,East,82,0.6,2.7,61,0.00,,,0.00,WSDL version 423,2013-04-19 01:05:00,
2013-04-18 21:10:00,65.8,52.3,27.85,East,95,1.1,2.5,62,0.00,,,0.00,WSDL version 423,2013-04-19 01:10:00,
2013-04-18 21:15:00,65.6,52.3,27.85,ESE,104,1.5,2.7,62,0.00,,,0.00,WSDL version 423,2013-04-19 01:15:00,
2013-04-18 21:20:00,65.5,52.3,27.85,ENE,58,1.3,2.9,63,0.00,,,0.00,WSDL version 423,2013-04-19 01:20:00,
2013-04-18 21:25:00,65.5,52.1,27.85,East,85,0.3,2.9,62,0.00,,,0.00,WSDL version 423,2013-04-19 01:25:00,
2013-04-18 21:30:00,65.4,52.0,27.85,ENE,75,1.2,2.2,62,0.00,,,0.00,WSDL version 423,2013-04-19 01:30:00,
2013-04-18 21:35:00,65.3,52.0,27.85,East,100,2.1,2.9,62,0.00,,,0.00,WSDL version 423,2013-04-19 01:35:00,
2013-04-18 21:40:00,65.3,52.0,27.85,East,87,1.1,2.9,62,0.00,,,0.00,WSDL version 423,2013-04-19 01:40:00,
2013-04-18 21:45:00,65.2,52.0,27.85,East,80,1.8,2.7,63,0.00,,,0.00,WSDL version 423,2013-04-19 01:45:00,
2013-04-18 21:50:00,65.1,52.2,27.85,ENE,73,1.8,2.7,63,0.00,,,0.00,WSDL version 423,2013-04-19 01:50:00,
2013-04-18 21:55:00,65.1,52.2,27.85,ESE,105,1.4,3.4,63,0.00,,,0.00,WSDL version 423,2013-04-19 01:55:00,
2013-04-18 22:00:00,64.9,52.1,27.85,ENE,78,1.4,3.4,64,0.00,,,0.00,WSDL version 423,2013-04-19 02:00:00,
2013-04-18 22:05:00,64.9,52.0,27.85,East,101,0.2,2.5,63,0.00,,,0.00,WSDL version 423,2013-04-19 02:05:00,
2013-04-18 22:10:00,64.8,51.9,27.85,ENE,78,1.5,2.2,63,0.00,,,0.00,WSDL version 423,2013-04-19 02:10:00,
2013-04-18 22:15:00,64.8,52.1,27.85,East,82,1.5,2.9,63,0.00,,,0.00,WSDL version 423,2013-04-19 02:15:00,
2013-04-18 22:20:00,64.8,52.2,27.85,East,85,1.3,2.9,64,0.00,,,0.00,WSDL version 423,2013-04-19 02:20:00,
2013-04-18 22:25:00,64.8,52.3,27.85,SSW,203,0.3,3.1,64,0.00,,,0.00,WSDL version 423,2013-04-19 02:25:00,
2013-04-18 22:30:00,64.8,52.3,27.85,ENE,73,0.9,3.1,64,0.00,,,0.00,WSDL version 423,2013-04-19 02:30:00,
2013-04-18 22:35:00,64.8,52.3,27.85,ENE,70,1.3,3.1,64,0.00,,,0.00,WSDL version 423,2013-04-19 02:35:00,
2013-04-18 22:40:00,64.6,52.4,27.85,NE,53,2.5,3.1,65,0.00,,,0.00,WSDL version 423,2013-04-19 02:40:00,
2013-04-18 22:45:00,64.6,52.6,27.85,SE,128,0.7,3.1,65,0.00,,,0.00,WSDL version 423,2013-04-19 02:45:00,
2013-04-18 22:50:00,64.6,52.6,27.85,East,93,0.4,2.9,65,0.00,,,0.00,WSDL version 423,2013-04-19 02:50:00,
2013-04-18 22:55:00,64.6,52.6,27.85,NNE,23,1.7,2.9,65,0.00,,,0.00,WSDL version 423,2013-04-19 02:55:00,
2013-04-18 23:00:00,64.6,53.0,27.85,NE,34,2.0,2.9,66,0.00,,,0.00,WSDL version 423,2013-04-19 03:00:00,
2013-04-18 23:05:00,64.6,53.0,27.85,East,83,1.8,3.1,66,0.00,,,0.00,WSDL version 423,2013-04-19 03:05:00,
2013-04-18 23:10:00,64.6,53.2,27.85,ENE,65,2.5,3.8,67,0.00,,,0.00,WSDL version 423,2013-04-19 03:10:00,
2013-04-18 23:15:00,64.5,53.4,27.85,NE,34,1.1,3.8,67,0.00,,,0.00,WSDL version 423,2013-04-19 03:15:00,
2013-04-18 23:20:00,64.6,53.5,27.82,ENE,58,1.4,3.4,68,0.00,,,0.00,WSDL version 423,2013-04-19 03:20:00,
2013-04-18 23:25:00,64.4,53.6,27.82,ENE,76,1.5,3.6,68,0.00,,,0.00,WSDL version 423,2013-04-19 03:25:00,
2013-04-18 23:30:00,64.4,53.8,27.82,NE,53,2.2,3.6,69,0.00,,,0.00,WSDL version 423,2013-04-19 03:30:00,
2013-04-18 23:35:00,64.4,54.1,27.82,NE,51,1.7,3.6,69,0.00,,,0.00,WSDL version 423,2013-04-19 03:35:00,
2013-04-18 23:40:00,64.2,54.2,27.82,ENE,70,1.0,2.9,71,0.00,,,0.00,WSDL version 423,2013-04-19 03:40:00,
2013-04-18 23:45:00,64.2,54.6,27.82,NE,45,2.1,4.0,71,0.00,,,0.00,WSDL version 423,2013-04-19 03:45:00,
2013-04-18 23:50:00,64.2,54.9,27.82,ESE,110,1.6,4.5,72,0.00,,,0.00,WSDL version 423,2013-04-19 03:50:00,
2013-04-18 23:55:00,64.3,54.8,27.82,North,355,2.4,4.5,71,0.00,,,0.00,WSDL version 423,2013-04-19 03:55:00,